Time;durP1;ratioP1;P1;durP2;ratioP2;P2;SDS_P1;SDS_P2;PMS_P1;PMS_P2;Temp;Humidity;BMP_temperature;BMP_pressure;BME280_temperature;BME280_humidity;BME280_pressure;Samples;Min_cycle;Max_cycle;Signal;HPM_P1;HPM_P2
2022/04/18 00:01:53;;;;;;;20.35;10.88;;;;;;;;;;4998921;28;20029;-74
2022/04/18 00:04:19;;;;;;;21.27;10.50;;;;;;;;;;4993571;28;20117;-74
2022/04/18 00:06:44;;;;;;;18.52;10.55;;;;;;;;;;5007124;28;20022;-74
2022/04/18 00:09:11;;;;;;;15.85;9.95;;;;;;;;;;5001489;28;20045;-74
2022/04/18 00:11:37;;;;;;;20.95;10.35;;;;;;;;;;5000578;28;20034;-74
2022/04/18 00:14:03;;;;;;;19.60;10.50;;;;;;;;;;5008720;28;20489;-74
2022/04/18 00:16:30;;;;;;;18.80;10.52;;;;;;;;;;5009107;28;20080;-74
2022/04/18 00:18:56;;;;;;;16.90;10.85;;;;;;;;;;5003680;28;20060;-74
2022/04/18 00:21:22;;;;;;;14.40;10.40;;;;;;;;;;5008195;28;20543;-74
2022/04/18 00:23:48;;;;;;;18.70;10.52;;;;;;;;;;5007885;28;20037;-74
2022/04/18 00:26:14;;;;;;;16.75;10.38;;;;;;;;;;5006113;28;20030;-74
2022/04/18 00:28:40;;;;;;;14.50;10.10;;;;;;;;;;5006807;28;20250;-73
2022/04/18 00:31:06;;;;;;;15.75;10.05;;;;;;;;;;5007921;28;20058;-74
2022/04/18 00:33:32;;;;;;;15.93;10.25;;;;;;;;;;5005849;28;20026;-73
2022/04/18 00:35:58;;;;;;;16.95;10.15;;;;;;;;;;4998480;28;20027;-74
2022/04/18 00:38:24;;;;;;;16.65;10.43;;;;;;;;;;5003759;28;20394;-74
2022/04/18 00:40:50;;;;;;;15.68;10.20;;;;;;;;;;4998975;28;20022;-74
2022/04/18 00:43:16;;;;;;;16.10;9.85;;;;;;;;;;4998785;28;20037;-74
2022/04/18 00:45:42;;;;;;;17.00;10.73;;;;;;;;;;5005271;28;20043;-74
2022/04/18 00:48:08;;;;;;;17.75;10.98;;;;;;;;;;5000393;28;20049;-74
2022/04/18 00:50:35;;;;;;;17.35;11.07;;;;;;;;;;4999391;28;20022;-74
2022/04/18 00:53:01;;;;;;;18.23;10.45;;;;;;;;;;4994237;28;20041;-74
2022/04/18 00:55:28;;;;;;;19.02;10.60;;;;;;;;;;4998669;28;20025;-74
2022/04/18 00:57:55;;;;;;;17.95;10.75;;;;;;;;;;5003285;28;20022;-74
2022/04/18 01:00:21;;;;;;;17.08;10.40;;;;;;;;;;4997263;28;20057;-74
2022/04/18 01:02:47;;;;;;;17.75;10.23;;;;;;;;;;5000571;28;20029;-74
2022/04/18 01:05:13;;;;;;;17.13;10.23;;;;;;;;;;5005387;28;20385;-74
2022/04/18 01:07:39;;;;;;;17.98;10.68;;;;;;;;;;5001725;28;20018;-74
2022/04/18 01:10:06;;;;;;;16.27;9.52;;;;;;;;;;5002799;28;20050;-74
2022/04/18 01:12:32;;;;;;;18.27;10.02;;;;;;;;;;5014191;28;20033;-75
2022/04/18 01:14:58;;;;;;;15.82;10.15;;;;;;;;;;5007461;28;20105;-75
2022/04/18 01:17:24;;;;;;;14.90;10.18;;;;;;;;;;5008462;28;20026;-75
2022/04/18 01:19:50;;;;;;;16.05;10.30;;;;;;;;;;5004327;28;20038;-74
2022/04/18 01:22:18;;;;;;;18.05;10.55;;;;;;;;;;5007943;28;20026;-74
2022/04/18 01:30:17;;;;;;;28.85;14.43;;;;;;;;;;5006030;28;20053;-75
2022/04/18 01:32:43;;;;;;;22.42;13.10;;;;;;;;;;5008130;28;20113;-75
2022/04/18 01:35:09;;;;;;;18.98;11.43;;;;;;;;;;5011674;28;20113;-74
2022/04/18 01:37:36;;;;;;;19.30;11.95;;;;;;;;;;5007532;28;20026;-74
2022/04/18 01:40:03;;;;;;;19.42;10.98;;;;;;;;;;5004384;28;20041;-74
2022/04/18 01:42:29;;;;;;;16.15;10.52;;;;;;;;;;5011120;28;20492;-74
2022/04/18 01:44:55;;;;;;;16.65;10.27;;;;;;;;;;5007535;28;20026;-74
2022/04/18 01:47:21;;;;;;;18.10;10.32;;;;;;;;;;5011668;28;20231;-74
2022/04/18 01:49:46;;;;;;;19.02;10.68;;;;;;;;;;5011093;28;20725;-74
2022/04/18 01:52:12;;;;;;;20.38;10.63;;;;;;;;;;5006852;28;20029;-74
2022/04/18 01:54:38;;;;;;;16.55;10.35;;;;;;;;;;5011469;28;20390;-74
2022/04/18 01:57:04;;;;;;;18.20;10.45;;;;;;;;;;5004680;28;20172;-74
2022/04/18 01:59:30;;;;;;;19.13;11.07;;;;;;;;;;5010547;28;20504;-75
2022/04/18 02:01:56;;;;;;;18.20;10.55;;;;;;;;;;5006658;28;20030;-74
2022/04/18 02:04:22;;;;;;;18.10;10.75;;;;;;;;;;5010340;28;20019;-75
2022/04/18 02:06:48;;;;;;;20.15;10.57;;;;;;;;;;5010883;28;20061;-74
2022/04/18 02:09:14;;;;;;;16.10;10.25;;;;;;;;;;5005240;28;20038;-75
2022/04/18 02:11:40;;;;;;;19.75;11.15;;;;;;;;;;5018146;28;20080;-75
2022/04/18 02:14:06;;;;;;;19.10;10.73;;;;;;;;;;5009306;28;20061;-75
2022/04/18 02:16:32;;;;;;;21.80;11.35;;;;;;;;;;5011643;28;20168;-74
2022/04/18 02:18:58;;;;;;;18.42;11.05;;;;;;;;;;5008653;28;20121;-74
2022/04/18 02:21:24;;;;;;;23.77;11.52;;;;;;;;;;5005121;28;20109;-74
2022/04/18 02:23:50;;;;;;;18.80;10.35;;;;;;;;;;5009569;28;20030;-74
2022/04/18 02:26:16;;;;;;;18.95;9.90;;;;;;;;;;5003739;28;20124;-74
2022/04/18 02:28:42;;;;;;;17.42;10.40;;;;;;;;;;5005407;28;20153;-75
2022/04/18 02:31:08;;;;;;;18.83;10.93;;;;;;;;;;5003139;28;20038;-74
2022/04/18 02:33:34;;;;;;;19.00;9.95;;;;;;;;;;4996487;28;20037;-74
2022/04/18 02:36:01;;;;;;;15.68;9.25;;;;;;;;;;5006142;28;20026;-75
2022/04/18 02:38:27;;;;;;;13.95;9.57;;;;;;;;;;5002882;28;20037;-75
2022/04/18 02:40:54;;;;;;;16.50;10.07;;;;;;;;;;4997646;28;20018;-75
2022/04/18 02:43:19;;;;;;;16.20;9.40;;;;;;;;;;5002646;28;20436;-74
2022/04/18 02:45:45;;;;;;;19.63;9.27;;;;;;;;;;5007822;28;20029;-75
2022/04/18 02:48:11;;;;;;;14.77;9.30;;;;;;;;;;5003352;28;20026;-74
2022/04/18 02:50:37;;;;;;;15.73;8.68;;;;;;;;;;5006221;28;20080;-75
2022/04/18 02:53:05;;;;;;;15.40;9.80;;;;;;;;;;5002400;28;20053;-75
2022/04/18 02:55:34;;;;;;;13.93;8.73;;;;;;;;;;5002490;28;20036;-75
2022/04/18 02:58:00;;;;;;;14.13;8.48;;;;;;;;;;5001019;28;20064;-75
2022/04/18 03:00:26;;;;;;;16.20;8.90;;;;;;;;;;4993769;28;20271;-74
2022/04/18 03:02:52;;;;;;;14.95;8.20;;;;;;;;;;5001399;28;20401;-74
2022/04/18 03:05:18;;;;;;;14.38;8.65;;;;;;;;;;5001012;28;20034;-74
2022/04/18 03:07:44;;;;;;;12.75;8.57;;;;;;;;;;5002869;28;20087;-76
2022/04/18 03:10:09;;;;;;;15.70;8.70;;;;;;;;;;5005154;28;20053;-75
2022/04/18 03:12:35;;;;;;;15.27;9.02;;;;;;;;;;5008895;28;20531;-74
2022/04/18 03:15:01;;;;;;;17.25;8.82;;;;;;;;;;5003690;28;20454;-74
2022/04/18 03:17:27;;;;;;;14.57;9.15;;;;;;;;;;5001840;28;20026;-75
2022/04/18 03:19:53;;;;;;;15.57;9.93;;;;;;;;;;5005664;28;20030;-75
2022/04/18 03:22:20;;;;;;;14.20;8.90;;;;;;;;;;5005192;28;20048;-75
2022/04/18 03:24:46;;;;;;;18.63;9.93;;;;;;;;;;5003210;28;20511;-74
2022/04/18 03:27:12;;;;;;;20.60;10.15;;;;;;;;;;5007694;28;20034;-75
2022/04/18 03:29:38;;;;;;;19.55;10.85;;;;;;;;;;5009655;28;20389;-75
2022/04/18 03:32:05;;;;;;;16.50;9.88;;;;;;;;;;5005259;28;20030;-74
2022/04/18 03:34:31;;;;;;;16.00;8.85;;;;;;;;;;5010866;28;20061;-75
2022/04/18 03:39:51;;;;;;;14.95;9.48;;;;;;;;;;5007977;28;20045;-75
2022/04/18 03:42:29;;;;;;;14.27;9.20;;;;;;;;;;5007373;28;20053;-74
2022/04/18 03:44:55;;;;;;;16.48;8.73;;;;;;;;;;5007963;28;20041;-74
2022/04/18 03:47:21;;;;;;;14.35;8.57;;;;;;;;;;4998744;28;20030;-74
2022/04/18 03:49:47;;;;;;;16.50;9.30;;;;;;;;;;5006237;28;20121;-74
2022/04/18 03:52:13;;;;;;;15.60;9.02;;;;;;;;;;5009572;28;20116;-74
2022/04/18 03:54:40;;;;;;;14.65;8.23;;;;;;;;;;5007688;28;20547;-75
2022/04/18 03:57:07;;;;;;;13.20;8.50;;;;;;;;;;5007642;28;20397;-74
2022/04/18 03:59:33;;;;;;;16.38;9.35;;;;;;;;;;5002268;28;20240;-74
2022/04/18 04:01:59;;;;;;;15.00;9.05;;;;;;;;;;5001739;28;20080;-75
2022/04/18 04:04:25;;;;;;;15.57;8.60;;;;;;;;;;5004306;28;20029;-75
2022/04/18 04:06:51;;;;;;;14.80;9.07;;;;;;;;;;5000099;28;20038;-75
2022/04/18 04:09:17;;;;;;;14.18;8.60;;;;;;;;;;5005192;28;20046;-74
2022/04/18 04:11:43;;;;;;;15.38;8.65;;;;;;;;;;5000275;28;20157;-74
2022/04/18 04:14:09;;;;;;;16.65;9.10;;;;;;;;;;5000846;28;20041;-75
2022/04/18 04:16:35;;;;;;;22.98;10.52;;;;;;;;;;4994908;28;20034;-75
2022/04/18 04:19:01;;;;;;;14.02;8.40;;;;;;;;;;5013040;28;20028;-74
2022/04/18 04:21:26;;;;;;;16.45;8.82;;;;;;;;;;5005087;28;20428;-74
2022/04/18 04:23:52;;;;;;;13.68;8.27;;;;;;;;;;5001673;28;20121;-75
2022/04/18 04:26:18;;;;;;;12.63;8.43;;;;;;;;;;5000498;28;20485;-75
2022/04/18 04:28:44;;;;;;;13.95;8.43;;;;;;;;;;5004381;28;20027;-74
2022/04/18 04:31:10;;;;;;;12.60;8.35;;;;;;;;;;5005888;28;20037;-74
2022/04/18 04:33:36;;;;;;;26.50;14.57;;;;;;;;;;5003505;28;20058;-75
2022/04/18 04:36:02;;;;;;;23.63;12.02;;;;;;;;;;5003911;28;20384;-74
2022/04/18 04:38:28;;;;;;;22.25;11.65;;;;;;;;;;4995406;28;20034;-74
2022/04/18 04:40:54;;;;;;;24.98;11.40;;;;;;;;;;5006428;28;20444;-74
2022/04/18 04:43:20;;;;;;;20.25;10.38;;;;;;;;;;5000281;28;20088;-74
2022/04/18 04:45:46;;;;;;;18.42;10.07;;;;;;;;;;5009659;28;20030;-74
2022/04/18 04:48:12;;;;;;;17.73;10.02;;;;;;;;;;5004458;28;20029;-75
2022/04/18 04:50:40;;;;;;;17.27;10.65;;;;;;;;;;5004220;28;20412;-74
2022/04/18 04:53:06;;;;;;;18.40;9.05;;;;;;;;;;4996399;28;20030;-74
2022/04/18 04:55:32;;;;;;;18.83;9.25;;;;;;;;;;4997831;28;20026;-75
2022/04/18 04:57:58;;;;;;;17.00;9.35;;;;;;;;;;4994875;28;20054;-74
2022/04/18 05:00:25;;;;;;;18.00;8.57;;;;;;;;;;5001869;28;20423;-73
2022/04/18 05:02:51;;;;;;;18.67;8.73;;;;;;;;;;5007860;28;20034;-74
2022/04/18 05:05:17;;;;;;;15.25;8.35;;;;;;;;;;4993566;28;20034;-74
2022/04/18 05:07:43;;;;;;;14.43;8.68;;;;;;;;;;4998887;28;20050;-73
2022/04/18 05:10:09;;;;;;;19.27;8.68;;;;;;;;;;5003371;28;20046;-73
2022/04/18 05:12:35;;;;;;;16.60;8.45;;;;;;;;;;4995820;28;20393;-73
2022/04/18 05:15:01;;;;;;;18.70;9.07;;;;;;;;;;5002224;28;20031;-74
2022/04/18 05:17:27;;;;;;;17.17;8.77;;;;;;;;;;5005927;28;20049;-74
2022/04/18 05:19:53;;;;;;;18.20;9.18;;;;;;;;;;4990387;28;20031;-74
2022/04/18 05:22:19;;;;;;;19.25;9.57;;;;;;;;;;5001557;28;20030;-74
2022/04/18 05:24:45;;;;;;;18.38;9.38;;;;;;;;;;5001164;28;20105;-73
2022/04/18 05:27:15;;;;;;;14.13;8.50;;;;;;;;;;5006250;28;20611;-73
2022/04/18 05:29:41;;;;;;;16.00;9.75;;;;;;;;;;4999547;28;20022;-74
2022/04/18 05:32:07;;;;;;;22.40;10.73;;;;;;;;;;4998760;28;20030;-74
2022/04/18 05:34:33;;;;;;;19.40;9.85;;;;;;;;;;5003562;28;20034;-73
2022/04/18 05:36:59;;;;;;;18.00;10.23;;;;;;;;;;4998799;28;20030;-73
2022/04/18 05:39:25;;;;;;;17.80;10.02;;;;;;;;;;4994810;28;20424;-73
2022/04/18 05:41:51;;;;;;;16.48;9.75;;;;;;;;;;5004218;28;20033;-74
2022/04/18 05:44:16;;;;;;;20.50;10.07;;;;;;;;;;4999969;28;20084;-72
2022/04/18 05:46:42;;;;;;;18.25;9.93;;;;;;;;;;4999325;28;20026;-74
2022/04/18 05:49:08;;;;;;;22.30;10.15;;;;;;;;;;4997867;28;20057;-77
2022/04/18 05:51:36;;;;;;;19.67;9.10;;;;;;;;;;5004144;28;20099;-75
2022/04/18 05:54:03;;;;;;;18.83;9.60;;;;;;;;;;4994285;28;20030;-73
2022/04/18 05:56:29;;;;;;;20.80;10.07;;;;;;;;;;5003675;28;20038;-74
2022/04/18 05:58:55;;;;;;;17.58;9.98;;;;;;;;;;5009867;28;20231;-73
2022/04/18 06:01:24;;;;;;;18.55;9.90;;;;;;;;;;5002939;28;20034;-75
2022/04/18 06:03:50;;;;;;;24.85;10.50;;;;;;;;;;5006252;28;20518;-74
2022/04/18 06:06:16;;;;;;;20.98;10.80;;;;;;;;;;5000863;28;20072;-74
2022/04/18 06:08:42;;;;;;;22.55;10.60;;;;;;;;;;5002406;28;20036;-75
2022/04/18 06:11:08;;;;;;;18.58;10.52;;;;;;;;;;5000412;28;20177;-74
2022/04/18 06:13:34;;;;;;;27.10;11.38;;;;;;;;;;4999849;28;20145;-73
2022/04/18 06:16:00;;;;;;;19.83;10.43;;;;;;;;;;5006145;28;20066;-73
2022/04/18 06:18:27;;;;;;;24.00;11.48;;;;;;;;;;4998947;28;20081;-73
2022/04/18 06:20:53;;;;;;;25.60;12.25;;;;;;;;;;5006999;28;20034;-73
2022/04/18 06:23:19;;;;;;;26.33;12.30;;;;;;;;;;5010480;28;20120;-73
2022/04/18 06:25:45;;;;;;;28.77;12.88;;;;;;;;;;5007253;28;20097;-74
2022/04/18 06:28:14;;;;;;;24.70;12.23;;;;;;;;;;5011072;28;20030;-73
2022/04/18 06:30:40;;;;;;;22.58;12.63;;;;;;;;;;5008635;28;20045;-74
2022/04/18 06:33:09;;;;;;;23.13;12.20;;;;;;;;;;5009367;28;20053;-72
2022/04/18 06:35:36;;;;;;;24.60;12.75;;;;;;;;;;5005301;28;20030;-73
2022/04/18 06:38:02;;;;;;;27.38;13.10;;;;;;;;;;5012174;28;20044;-74
2022/04/18 06:40:28;;;;;;;25.30;12.65;;;;;;;;;;5017540;28;20037;-74
2022/04/18 06:42:53;;;;;;;27.02;13.50;;;;;;;;;;5009051;28;20113;-73
2022/04/18 06:45:19;;;;;;;29.10;13.43;;;;;;;;;;5008369;28;20026;-73
2022/04/18 06:47:45;;;;;;;25.55;12.27;;;;;;;;;;5011483;28;20018;-73
2022/04/18 06:50:12;;;;;;;27.45;12.48;;;;;;;;;;5023140;28;20555;-74
2022/04/18 06:52:42;;;;;;;23.05;12.70;;;;;;;;;;5007896;28;20058;-72
2022/04/18 06:55:08;;;;;;;25.05;12.27;;;;;;;;;;5000715;28;20049;-77
2022/04/18 06:57:34;;;;;;;23.83;11.60;;;;;;;;;;5006710;28;20138;-76
2022/04/18 07:00:00;;;;;;;20.70;11.05;;;;;;;;;;5003193;28;20099;-75
2022/04/18 07:02:26;;;;;;;20.40;10.77;;;;;;;;;;5003965;28;20022;-76
2022/04/18 07:04:53;;;;;;;20.73;11.48;;;;;;;;;;5004686;28;20054;-76
2022/04/18 07:07:19;;;;;;;24.17;11.18;;;;;;;;;;5007823;28;20026;-76
2022/04/18 07:09:45;;;;;;;24.08;12.57;;;;;;;;;;5008515;28;20077;-76
2022/04/18 07:12:11;;;;;;;24.35;11.30;;;;;;;;;;5005802;28;20065;-76
2022/04/18 07:14:38;;;;;;;21.33;9.48;;;;;;;;;;5002102;28;20080;-77
2022/04/18 07:17:04;;;;;;;16.98;9.20;;;;;;;;;;5003229;28;20021;-77
2022/04/18 07:19:31;;;;;;;16.98;8.73;;;;;;;;;;5008150;28;20103;-76
2022/04/18 07:21:57;;;;;;;22.85;9.10;;;;;;;;;;5006117;28;20085;-76
2022/04/18 07:24:23;;;;;;;16.65;8.88;;;;;;;;;;5007148;28;20084;-76
2022/04/18 07:26:49;;;;;;;15.55;8.75;;;;;;;;;;5006263;28;20021;-76
2022/04/18 07:29:15;;;;;;;19.70;9.35;;;;;;;;;;5004630;28;20045;-76
2022/04/18 07:31:42;;;;;;;22.17;10.20;;;;;;;;;;5006347;28;20155;-76
2022/04/18 07:34:08;;;;;;;14.68;9.20;;;;;;;;;;5007868;28;20497;-76
2022/04/18 07:36:34;;;;;;;20.80;10.20;;;;;;;;;;5004126;28;20029;-76
2022/04/18 07:39:00;;;;;;;18.52;10.48;;;;;;;;;;5005616;28;20109;-75
2022/04/18 07:41:27;;;;;;;17.67;9.30;;;;;;;;;;5006547;28;20033;-76
2022/04/18 07:43:53;;;;;;;21.70;9.32;;;;;;;;;;5004368;28;20022;-76
2022/04/18 07:46:19;;;;;;;14.10;8.20;;;;;;;;;;5005254;28;20080;-76
2022/04/18 07:48:46;;;;;;;19.00;9.23;;;;;;;;;;5006897;28;20121;-76
2022/04/18 07:53:57;;;;;;;17.92;8.77;;;;;;;;;;5004035;28;20037;-77
2022/04/18 07:56:23;;;;;;;14.90;8.52;;;;;;;;;;5006279;28;20022;-76
2022/04/18 07:58:50;;;;;;;15.35;8.15;;;;;;;;;;5006054;28;20040;-76
2022/04/18 08:01:16;;;;;;;15.73;8.30;;;;;;;;;;5007457;28;20092;-76
2022/04/18 08:03:42;;;;;;;14.77;8.02;;;;;;;;;;5005336;28;20030;-76
2022/04/18 08:06:08;;;;;;;14.10;7.50;;;;;;;;;;5006016;28;20030;-76
2022/04/18 08:08:34;;;;;;;14.05;7.00;;;;;;;;;;5003689;28;20022;-75
2022/04/18 08:11:00;;;;;;;12.30;6.38;;;;;;;;;;4997217;28;20092;-80
2022/04/18 08:13:26;;;;;;;15.20;7.70;;;;;;;;;;5007065;28;20034;-76
2022/04/18 08:15:52;;;;;;;13.00;5.85;;;;;;;;;;5002927;28;20042;-76
2022/04/18 08:18:18;;;;;;;9.15;5.20;;;;;;;;;;5002686;28;20030;-76
2022/04/18 08:20:44;;;;;;;10.18;5.55;;;;;;;;;;5009402;28;20076;-74
2022/04/18 08:23:10;;;;;;;10.15;6.13;;;;;;;;;;5006767;28;20734;-74
2022/04/18 08:25:36;;;;;;;8.35;5.97;;;;;;;;;;5004186;28;20026;-73
2022/04/18 08:28:02;;;;;;;8.40;5.50;;;;;;;;;;5008130;28;20049;-74
2022/04/18 08:30:28;;;;;;;11.02;5.05;;;;;;;;;;5007344;28;20409;-74
2022/04/18 08:32:54;;;;;;;9.15;5.63;;;;;;;;;;4999935;28;20034;-75
2022/04/18 08:35:20;;;;;;;8.52;5.10;;;;;;;;;;5000819;28;20022;-74
2022/04/18 08:37:46;;;;;;;8.75;5.35;;;;;;;;;;5000445;28;20569;-72
2022/04/18 08:40:14;;;;;;;8.60;4.78;;;;;;;;;;5003912;28;20380;-73
2022/04/18 08:42:41;;;;;;;8.98;4.97;;;;;;;;;;4999714;28;20105;-73
2022/04/18 08:45:09;;;;;;;12.88;4.72;;;;;;;;;;5005841;28;20026;-72
2022/04/18 08:53:06;;;;;;;6.80;4.18;;;;;;;;;;5000142;28;20143;-74
2022/04/18 08:55:32;;;;;;;8.02;4.20;;;;;;;;;;4996118;28;20022;-73
2022/04/18 08:57:58;;;;;;;8.00;3.80;;;;;;;;;;5004677;28;20568;-74
2022/04/18 09:00:24;;;;;;;7.50;3.95;;;;;;;;;;5002325;28;20022;-80
2022/04/18 09:02:50;;;;;;;4.90;3.38;;;;;;;;;;5006930;28;20026;-73
2022/04/18 09:05:16;;;;;;;5.65;3.10;;;;;;;;;;5005708;28;20041;-70
2022/04/18 09:07:56;;;;;;;5.63;3.25;;;;;;;;;;4999216;28;20053;-73
2022/04/18 09:10:23;;;;;;;5.07;2.90;;;;;;;;;;5003068;28;20049;-76
2022/04/18 09:12:50;;;;;;;4.30;2.30;;;;;;;;;;5004384;28;20041;-73
2022/04/18 09:15:29;;;;;;;3.50;2.42;;;;;;;;;;5003221;28;20548;-78
2022/04/18 09:18:06;;;;;;;4.03;2.80;;;;;;;;;;5005060;28;20033;-74
2022/04/18 09:20:39;;;;;;;6.95;2.53;;;;;;;;;;4996390;28;20029;-75
2022/04/18 09:23:05;;;;;;;3.78;2.08;;;;;;;;;;5002652;28;20052;-72
2022/04/18 09:25:37;;;;;;;4.60;2.63;;;;;;;;;;5002064;28;20642;-73
2022/04/18 09:28:03;;;;;;;;;;;;;;;;;;5004858;28;20404;-72
2022/04/18 09:30:33;;;;;;;5.85;3.58;;;;;;;;;;5003251;28;19914;-72
2022/04/18 09:33:04;;;;;;;6.85;3.20;;;;;;;;;;5005781;28;20496;-72
2022/04/18 09:35:30;;;;;;;5.23;3.20;;;;;;;;;;5004853;28;20041;-72
2022/04/18 09:38:00;;;;;;;5.85;2.85;;;;;;;;;;5008933;28;20034;-73
2022/04/18 09:40:26;;;;;;;3.78;2.65;;;;;;;;;;5007233;28;20029;-74
2022/04/18 09:42:53;;;;;;;4.80;2.70;;;;;;;;;;5004701;28;20520;-73
2022/04/18 09:45:19;;;;;;;3.60;2.33;;;;;;;;;;5004266;28;20030;-74
2022/04/18 09:47:53;;;;;;;2.78;2.13;;;;;;;;;;5008846;28;20034;-74
2022/04/18 09:53:08;;;;;;;4.05;2.33;;;;;;;;;;5008744;28;20412;-74
2022/04/18 09:55:34;;;;;;;4.32;2.50;;;;;;;;;;5014080;28;20022;-73
2022/04/18 09:58:03;;;;;;;4.70;2.22;;;;;;;;;;5017417;28;20036;-73
2022/04/18 10:00:29;;;;;;;2.97;2.20;;;;;;;;;;5007311;28;20059;-74
2022/04/18 10:02:57;;;;;;;5.40;2.47;;;;;;;;;;5009761;28;20112;-73
2022/04/18 10:05:23;;;;;;;3.85;2.05;;;;;;;;;;5003970;28;20053;-73
2022/04/18 10:07:49;;;;;;;7.03;3.30;;;;;;;;;;5010034;28;20030;-73
2022/04/18 10:10:15;;;;;;;4.97;2.78;;;;;;;;;;5010190;28;20673;-74
2022/04/18 10:12:41;;;;;;;5.70;3.30;;;;;;;;;;5009292;28;20044;-76
2022/04/18 10:15:07;;;;;;;3.90;2.40;;;;;;;;;;5005525;28;20120;-73
2022/04/18 10:17:37;;;;;;;4.35;2.78;;;;;;;;;;5007961;28;20060;-73
2022/04/18 10:20:10;;;;;;;3.33;2.08;;;;;;;;;;5005565;28;20473;-73
2022/04/18 10:22:51;;;;;;;3.55;2.53;;;;;;;;;;5007245;28;20025;-74
2022/04/18 10:25:28;;;;;;;3.58;2.38;;;;;;;;;;5001976;28;20028;-73
2022/04/18 10:28:01;;;;;;;3.38;2.40;;;;;;;;;;5005790;28;20037;-73
2022/04/18 10:30:27;;;;;;;2.22;1.90;;;;;;;;;;5006792;28;20068;-74
2022/04/18 10:32:54;;;;;;;3.90;2.67;;;;;;;;;;5005348;28;20546;-73
2022/04/18 10:35:22;;;;;;;3.08;2.38;;;;;;;;;;5005370;28;20034;-74
2022/04/18 10:37:52;;;;;;;4.93;2.15;;;;;;;;;;5006794;28;20030;-73
2022/04/18 10:40:19;;;;;;;5.45;2.45;;;;;;;;;;5011213;28;20026;-74
2022/04/18 10:42:45;;;;;;;5.38;2.08;;;;;;;;;;5013517;28;20448;-73
2022/04/18 10:45:15;;;;;;;2.78;1.98;;;;;;;;;;5013372;28;20057;-73
2022/04/18 10:47:59;;;;;;;3.80;2.55;;;;;;;;;;5000992;28;20113;-81
2022/04/18 10:50:26;;;;;;;4.28;2.10;;;;;;;;;;5004071;28;20722;-81
2022/04/18 10:53:10;;;;;;;3.47;2.10;;;;;;;;;;5002845;28;20038;-80
2022/04/18 10:55:36;;;;;;;3.33;2.08;;;;;;;;;;5008504;28;20416;-81
2022/04/18 10:58:10;;;;;;;4.32;2.08;;;;;;;;;;5006471;28;20053;-81
2022/04/18 11:00:46;;;;;;;3.00;1.83;;;;;;;;;;5001666;28;20440;-81
2022/04/18 11:03:12;;;;;;;3.97;1.88;;;;;;;;;;5008445;28;20125;-80
2022/04/18 11:05:38;;;;;;;2.97;1.90;;;;;;;;;;5010690;28;20117;-81
2022/04/18 11:08:24;;;;;;;2.85;1.88;;;;;;;;;;5000898;28;20019;-81
2022/04/18 11:10:51;;;;;;;3.85;2.10;;;;;;;;;;5004824;28;20140;-80
2022/04/18 11:13:16;;;;;;;2.40;1.95;;;;;;;;;;5001428;28;20037;-81
2022/04/18 11:15:43;;;;;;;3.80;2.28;;;;;;;;;;5004640;28;20030;-73
2022/04/18 11:18:09;;;;;;;4.50;2.00;;;;;;;;;;5005284;28;20034;-71
2022/04/18 11:20:36;;;;;;;2.92;1.90;;;;;;;;;;5004482;28;20035;-72
2022/04/18 11:23:21;;;;;;;1.60;1.50;;;;;;;;;;5001277;28;20033;-71
2022/04/18 11:25:51;;;;;;;4.93;1.95;;;;;;;;;;4997279;28;20423;-72
2022/04/18 11:28:18;;;;;;;2.92;1.70;;;;;;;;;;5000623;28;20029;-71
2022/04/18 11:30:44;;;;;;;3.00;1.83;;;;;;;;;;4997066;28;20038;-71
2022/04/18 11:33:10;;;;;;;3.17;1.80;;;;;;;;;;5004162;28;20042;-71
2022/04/18 11:35:36;;;;;;;3.58;1.77;;;;;;;;;;4999978;28;20026;-73
2022/04/18 11:38:08;;;;;;;1.88;1.40;;;;;;;;;;4999637;28;20283;-74
2022/04/18 11:40:38;;;;;;;2.92;1.75;;;;;;;;;;5006536;28;20030;-75
2022/04/18 11:43:16;;;;;;;3.55;1.85;;;;;;;;;;5003403;28;20030;-72
2022/04/18 11:45:42;;;;;;;2.97;1.60;;;;;;;;;;5008207;28;20060;-72
2022/04/18 11:48:11;;;;;;;2.83;1.60;;;;;;;;;;5000770;28;20026;-71
2022/04/18 11:50:37;;;;;;;2.10;1.40;;;;;;;;;;5000918;28;20030;-73
2022/04/18 11:53:05;;;;;;;3.95;1.75;;;;;;;;;;5004098;28;20472;-73
2022/04/18 11:55:31;;;;;;;1.95;1.20;;;;;;;;;;5008569;28;20034;-71
2022/04/18 11:57:57;;;;;;;2.03;1.40;;;;;;;;;;5013672;28;20076;-73
2022/04/18 12:08:46;;;;;;;1.35;1.25;;;;;;;;;;5008443;28;20104;-70
2022/04/18 12:11:15;;;;;;;1.83;1.50;;;;;;;;;;5006793;28;20045;-70
2022/04/18 12:13:45;;;;;;;1.95;1.15;;;;;;;;;;5005837;28;20560;-71
2022/04/18 12:16:12;;;;;;;1.75;1.23;;;;;;;;;;5001993;28;20034;-71
2022/04/18 12:18:38;;;;;;;2.28;1.20;;;;;;;;;;5009377;28;20056;-72
2022/04/18 12:21:04;;;;;;;4.70;1.60;;;;;;;;;;5011360;28;20037;-71
2022/04/18 12:23:30;;;;;;;2.08;0.98;;;;;;;;;;5010021;28;20030;-70
2022/04/18 12:25:57;;;;;;;1.52;1.20;;;;;;;;;;5001444;28;20025;-71
2022/04/18 12:28:25;;;;;;;2.03;1.08;;;;;;;;;;5004801;28;20648;-70
2022/04/18 12:30:51;;;;;;;1.60;1.02;;;;;;;;;;4996778;28;20023;-72
2022/04/18 12:33:21;;;;;;;2.90;1.30;;;;;;;;;;5007987;28;20083;-70
2022/04/18 12:35:48;;;;;;;1.05;0.90;;;;;;;;;;5010017;28;20030;-70
2022/04/18 12:38:16;;;;;;;1.00;0.90;;;;;;;;;;5006956;28;20018;-70
2022/04/18 12:40:46;;;;;;;2.33;1.10;;;;;;;;;;5005164;28;20231;-71
2022/04/18 12:43:13;;;;;;;1.38;1.10;;;;;;;;;;5007813;28;20791;-71
2022/04/18 12:45:52;;;;;;;1.45;1.08;;;;;;;;;;5004904;28;20030;-72
2022/04/18 12:48:31;;;;;;;1.13;0.88;;;;;;;;;;5012151;28;20025;-72
2022/04/18 12:51:01;;;;;;;1.77;1.08;;;;;;;;;;5001276;28;20034;-70
2022/04/18 12:53:46;;;;;;;1.65;1.10;;;;;;;;;;5008839;28;20033;-71
2022/04/18 12:56:13;;;;;;;1.35;1.08;;;;;;;;;;5007619;28;20030;-71
2022/04/18 12:58:40;;;;;;;1.13;0.95;;;;;;;;;;5009461;28;20025;-71
2022/04/18 13:01:06;;;;;;;2.88;1.10;;;;;;;;;;5008288;28;20033;-70
2022/04/18 13:03:42;;;;;;;4.45;1.27;;;;;;;;;;5008239;28;20040;-71
2022/04/18 13:06:08;;;;;;;0.93;0.90;;;;;;;;;;5007033;28;20400;-71
2022/04/18 13:08:38;;;;;;;1.48;1.33;;;;;;;;;;5008750;28;20033;-70
2022/04/18 13:11:04;;;;;;;1.92;1.10;;;;;;;;;;5007177;28;20251;-69
2022/04/18 13:13:30;;;;;;;1.15;0.80;;;;;;;;;;5005643;28;20461;-72
2022/04/18 13:15:56;;;;;;;1.02;0.70;;;;;;;;;;5010206;28;20017;-72
2022/04/18 13:18:25;;;;;;;2.72;0.90;;;;;;;;;;5011819;28;20022;-70
2022/04/18 13:20:51;;;;;;;1.50;0.90;;;;;;;;;;4999450;28;20030;-70
2022/04/18 13:23:17;;;;;;;0.85;0.80;;;;;;;;;;5006740;28;20022;-71
2022/04/18 13:25:44;;;;;;;1.20;1.00;;;;;;;;;;5014751;28;20579;-71
2022/04/18 13:28:10;;;;;;;1.33;1.02;;;;;;;;;;5015247;28;20030;-71
2022/04/18 13:30:38;;;;;;;1.20;1.10;;;;;;;;;;5014321;28;20030;-70
2022/04/18 13:33:05;;;;;;;1.92;1.83;;;;;;;;;;5015309;28;20038;-71
2022/04/18 13:35:31;;;;;;;2.53;1.30;;;;;;;;;;5014269;28;20030;-71
2022/04/18 13:38:00;;;;;;;2.17;1.00;;;;;;;;;;5010722;28;20032;-71
2022/04/18 13:40:26;;;;;;;5.45;1.15;;;;;;;;;;5012466;28;20072;-71
2022/04/18 13:42:52;;;;;;;1.33;1.00;;;;;;;;;;5012666;28;20045;-69
2022/04/18 13:45:19;;;;;;;0.95;0.88;;;;;;;;;;5012340;28;20057;-71
2022/04/18 13:47:45;;;;;;;1.45;0.95;;;;;;;;;;5013897;28;20552;-71
2022/04/18 13:50:12;;;;;;;1.92;1.30;;;;;;;;;;5016803;28;20115;-70
2022/04/18 13:52:38;;;;;;;0.90;0.90;;;;;;;;;;5018388;28;20489;-71
2022/04/18 13:55:05;;;;;;;2.30;0.90;;;;;;;;;;5014472;28;20034;-71
2022/04/18 13:57:31;;;;;;;2.63;1.27;;;;;;;;;;5011861;28;20241;-71
2022/04/18 13:59:58;;;;;;;1.17;1.00;;;;;;;;;;5013287;28;20026;-72
2022/04/18 14:02:23;;;;;;;1.15;0.90;;;;;;;;;;5011833;28;20022;-72
2022/04/18 14:04:49;;;;;;;1.00;0.88;;;;;;;;;;5009382;28;20555;-70
2022/04/18 14:07:15;;;;;;;1.08;1.00;;;;;;;;;;5007092;28;20026;-70
2022/04/18 14:09:42;;;;;;;1.13;1.00;;;;;;;;;;5014406;28;20479;-69
2022/04/18 14:12:08;;;;;;;0.93;0.82;;;;;;;;;;5014291;28;20026;-70
2022/04/18 14:20:24;;;;;;;3.40;1.10;;;;;;;;;;5012314;28;20080;-74
2022/04/18 14:22:51;;;;;;;1.13;0.95;;;;;;;;;;5022337;28;20424;-73
2022/04/18 14:25:17;;;;;;;0.90;0.90;;;;;;;;;;5014819;28;20022;-75
2022/04/18 14:27:43;;;;;;;1.20;1.10;;;;;;;;;;5014719;28;20029;-74
2022/04/18 14:30:09;;;;;;;1.45;1.10;;;;;;;;;;5020450;28;20436;-73
2022/04/18 14:32:35;;;;;;;1.52;1.13;;;;;;;;;;5013708;28;20465;-74
2022/04/18 14:35:01;;;;;;;1.83;1.20;;;;;;;;;;5006274;28;20033;-74
2022/04/18 14:37:27;;;;;;;0.90;0.90;;;;;;;;;;5021406;28;20041;-74
2022/04/18 14:39:54;;;;;;;0.90;0.90;;;;;;;;;;5020448;28;20026;-74
2022/04/18 14:42:24;;;;;;;2.90;1.05;;;;;;;;;;5011153;28;20032;-74
2022/04/18 14:44:50;;;;;;;3.20;1.20;;;;;;;;;;5011999;28;20057;-73
2022/04/18 14:47:15;;;;;;;1.15;1.00;;;;;;;;;;5008781;28;20029;-75
2022/04/18 14:49:41;;;;;;;0.85;0.85;;;;;;;;;;5005143;28;20044;-74
2022/04/18 14:52:09;;;;;;;1.83;1.17;;;;;;;;;;5010298;28;20543;-73
2022/04/18 14:54:35;;;;;;;1.08;0.93;;;;;;;;;;5007445;28;20029;-73
2022/04/18 14:57:01;;;;;;;1.52;1.30;;;;;;;;;;5007154;28;20464;-73
2022/04/18 14:59:27;;;;;;;3.85;1.10;;;;;;;;;;5007564;28;20060;-73
2022/04/18 15:01:53;;;;;;;1.65;1.02;;;;;;;;;;5005612;28;20485;-73
2022/04/18 15:04:19;;;;;;;1.48;0.90;;;;;;;;;;5010437;28;20026;-73